• Join FlightAware (Why Join?)
  • Login
  • US Flag 
04:04PM EDT


 

Airport Tracker/Info


-or-


 

Live Flight TrackerFlight Track Log ✈ RPA4911 ✈ 07-Jul-2013 ✈ KALB - KEWR

Flight Track Log - Related Links

Times and Time Zones

All times are in EDT time to prevent confusion due to time zone crossing. See the RPA4911 flight status page for this flight to view local times or setup timezone preferences in your user account.

Time Position Orientation Groundspeed Altitude Reporting Facility
EDT Latitude Longitude Course Direction KTS MPH feet Rate Location/Type
07:11AM 42.7653 -73.8061 198° South 168 193 900  Level Boston Center
07:12AM 42.8275 -73.8386 339° North 224 258 3,400 2,040 Climbing Boston Center
07:14AM 42.4715 -73.8529 196° South  Level Estimated
07:14AM 42.7767 -73.8883 216° Southwest 226 260 6,000  Level Boston Center
07:15AM 42.3947 -73.9249 215° Southwest  Level FlightAware Approximate
07:15AM 42.7119 -73.8981 186° South 226 260 8,300  Level Boston Center
07:16AM 42.3019 -73.9385 198° South  Level Estimated
07:16AM 42.6511 -73.9250 198° South 231 266 10,300  Level Boston Center
07:17AM 42.5822 -73.9486 194° South 231 266 12,000 840 Climbing Boston Center
07:18AM 42.5172 -73.9753 197° South 256 295 12,000  Level Boston Center
07:19AM 42.4250 -74.0125 197° South 303 349 12,000  Level Boston Center
07:20AM 42.3475 -74.0414 195° South 328 377 12,000  Level Boston Center
07:21AM 42.2531 -74.0811 197° South 328 377 12,000  Level Boston Center
07:22AM 42.1692 -74.1153 197° South 328 377 12,000  Level Boston Center
07:23AM 42.0811 -74.1492 196° South 323 372 12,000  Level Boston Center
07:24AM 41.9953 -74.1831 196° South 323 372 12,000  Level Boston Center
07:25AM 41.9133 -74.2144 196° South 318 366 12,000  Level Boston Center
07:26AM 41.8419 -74.2431 197° South 304 350 12,000  Level Boston Center
07:27AM 41.7561 -74.2742 195° South 304 350 12,000 -240 Level Boston Center
07:28AM 41.6869 -74.3025 197° South 304 350 11,500 -960 Descending Boston Center
07:29AM 41.5894 -74.2747 168° South 283 326 10,000 -1,500 Descending Boston Center
07:30AM 41.5131 -74.2228 153° Southeast 302 348 8,600 -1,020 Descending Boston Center
07:31AM 41.4408 -74.1736 153° Southeast 302 348 8,000 -300 Descending Boston Center
07:32AM 41.3706 -74.1386 160° South 276 318 8,000  Level Boston Center
07:33AM 41.3333 -74.2333 242° Southwest 277 319 8,000 -60 Level New York TRACON
07:34AM 41.3167 -74.3333 258° West 264 304 7,900 -480 Descending New York TRACON
07:35AM 41.2667 -74.3833 217° Southwest 267 307 7,100 -480 Descending New York TRACON
07:36AM 41.2000 -74.4333 209° Southwest 261 300 7,000 -60 Descending New York TRACON
07:37AM 41.1333 -74.4500 191° South 274 315 7,000 -420 Level New York TRACON
07:38AM 41.0667 -74.3667 137° Southeast 275 316 6,200 -1,080 Descending New York TRACON
07:39AM 41.0167 -74.3000 135° Southeast 271 312 4,900 -1,440 Descending New York TRACON
07:40AM 40.9667 -74.2333 135° Southeast 270 311 3,400 -1,020 Descending New York TRACON
07:41AM 40.9167 -74.1667 135° Southeast 266 306 3,000 -240 Descending New York TRACON
07:42AM 40.8667 -74.1000 135° Southeast 258 297 3,000  Level New York TRACON